OMAL/AAN METAR and TAF weather

Enter ICAO airport designator
Station Type Date Time Source
OMAL METAR 2021/07/28 21:00 UTC NOAA

OMAL 282100Z 05005KT CAVOK 37/15 Q0995 BECMG 17012KT 4000 DU


Station Type Date Time Source
OMAL Decoded METAR 2021/07/28 21:00 UTC NOAA

Al Ain International Airport, United Arab Emirates (OMAL) 24-16N 055-36E 262M
Jul 28, 2021 - 05:00 PM EDT / 2021.07.28 2100 UTC
Wind: from the NE (050 degrees) at 6 MPH (5 KT):0
Visibility: greater than 7 mile(s):0
Temperature: 98 F (37 C)
Heat index: 97.5 F (36.4 C):1
Dew Point: 59 F (15 C)
Relative Humidity: 27%
Pressure (altimeter): 29.38 in. Hg (0995 hPa)
ob: OMAL 282100Z 05005KT CAVOK 37/15 Q0995 BECMG 17012KT 4000 DU
cycle: 21

Station Type Date Time Source
OMAL TAF 2021/07/28 18:05 UTC NOAA

TAF OMAL 281700Z 2818/3000 08010KT 7000 NSC
BECMG 2819/2821 19013KT 4000 DU PROB30 2820/2905 19015G25KT 1500 BLDU
BECMG 2907/2909 25015KT 7000 NSW
BECMG 2915/2917 33008KT
BECMG 2921/2923 19012KT

Example: see airport list